createdAt,value
2019-04-29T00:01:54.829Z,10.7
2019-04-29T00:07:17.594Z,10.6
2019-04-29T00:12:40.343Z,10.2
2019-04-29T00:18:03.075Z,10.2
2019-04-29T00:23:26.549Z,9.8
2019-04-29T00:28:50.453Z,10.1
2019-04-29T00:34:13.197Z,10.1
2019-04-29T00:39:35.974Z,9.4
2019-04-29T00:44:58.713Z,10.3
2019-04-29T00:50:21.505Z,9.9
2019-04-29T00:55:44.613Z,10.8
2019-04-29T01:01:07.348Z,10.2
2019-04-29T01:06:31.026Z,11.5
2019-04-29T01:11:53.743Z,10.9
2019-04-29T01:17:16.452Z,10.7
2019-04-29T01:22:39.623Z,11.7
2019-04-29T01:28:02.406Z,10.9
2019-04-29T01:33:26.551Z,11.2
2019-04-29T01:38:49.843Z,10.6
2019-04-29T01:44:12.596Z,12.7
2019-04-29T01:49:35.352Z,11.2
2019-04-29T01:54:58.126Z,11.7
2019-04-29T02:00:21.121Z,11.7
2019-04-29T02:05:43.851Z,11.8
2019-04-29T02:11:06.587Z,11.9
2019-04-29T02:16:31.390Z,10.3
2019-04-29T02:21:54.144Z,11.1
2019-04-29T02:27:17.460Z,11.5
2019-04-29T02:32:40.208Z,12.9
2019-04-29T02:38:03.821Z,13
2019-04-29T02:43:27.333Z,14.2
2019-04-29T02:48:50.149Z,14.6
2019-04-29T02:54:12.919Z,15.7
2019-04-29T02:59:35.624Z,15.2
2019-04-29T03:04:59.059Z,13.5
2019-04-29T03:10:21.795Z,16
2019-04-29T03:15:45.923Z,15.2
2019-04-29T03:21:09.023Z,15.9
2019-04-29T03:26:32.168Z,23.9
2019-04-29T03:31:54.958Z,22.1
2019-04-29T03:37:17.629Z,26.4
2019-04-29T03:42:40.320Z,22.700001
2019-04-29T03:48:03.048Z,20.1
2019-04-29T03:53:28.165Z,23.5
2019-04-29T03:58:49.369Z,25.4
2019-04-29T04:04:12.076Z,28.1
2019-04-29T04:09:34.756Z,25.1
2019-04-29T04:14:57.578Z,29.9
2019-04-29T04:20:20.262Z,30.200001
2019-04-29T04:25:42.939Z,28
2019-04-29T04:31:06.830Z,30.4
2019-04-29T04:36:29.447Z,29.4
2019-04-29T04:41:52.060Z,28.5
2019-04-29T04:47:14.697Z,30.9
2019-04-29T04:52:37.374Z,29.5
2019-04-29T04:58:00.741Z,31.299999
2019-04-29T05:03:24.386Z,32.400002
2019-04-29T05:08:47.040Z,30.799999
2019-04-29T05:14:09.755Z,27.200001
2019-04-29T05:19:32.427Z,28.200001
2019-04-29T05:24:55.086Z,24.799999
2019-04-29T05:30:18.525Z,23.6
2019-04-29T05:35:42.236Z,22.799999
2019-04-29T05:41:04.923Z,20.5
2019-04-29T05:46:27.605Z,16.9
2019-04-29T05:51:51.222Z,17.4
2019-04-29T05:57:13.885Z,17.9
2019-04-29T06:02:38.772Z,18.799999
2019-04-29T06:08:02.851Z,19.4
2019-04-29T06:13:25.252Z,17.299999
2019-04-29T06:18:47.890Z,18.4
2019-04-29T06:24:10.533Z,17.799999
2019-04-29T06:29:33.200Z,18.9
2019-04-29T06:34:55.875Z,17.700001
2019-04-29T06:40:18.560Z,18.5
2019-04-29T06:45:41.204Z,20.700001
2019-04-29T06:51:03.876Z,21.5
2019-04-29T06:56:26.622Z,23.6
2019-04-29T07:01:49.201Z,22.6
2019-04-29T07:07:12.507Z,22
2019-04-29T07:12:35.160Z,20.9
2019-04-29T07:17:57.936Z,20
2019-04-29T07:23:20.612Z,20.1
2019-04-29T07:28:43.326Z,20.200001
2019-04-29T07:34:08.373Z,18.6
2019-04-29T07:39:31.617Z,18.299999
2019-04-29T07:44:54.105Z,18.1
2019-04-29T07:50:16.760Z,18.299999
2019-04-29T07:55:39.365Z,16.299999
2019-04-29T08:01:02.007Z,14.7
2019-04-29T08:06:25.117Z,13.4
2019-04-29T08:11:47.718Z,11.1
2019-04-29T08:17:10.404Z,8.1
2019-04-29T08:22:33.026Z,8.3
2019-04-29T08:27:56.043Z,7.8
2019-04-29T08:33:18.725Z,7.8
2019-04-29T08:38:41.396Z,7.5
2019-04-29T08:44:15.603Z,6.9
2019-04-29T08:49:27.586Z,7.4
2019-04-29T08:54:50.600Z,7.7
2019-04-29T09:00:12.959Z,7.7
2019-04-29T09:05:35.551Z,7.8
2019-04-29T09:10:58.887Z,8.3
2019-04-29T09:16:21.552Z,8.5
2019-04-29T09:21:44.175Z,7.2
2019-04-29T09:27:09.461Z,7.1
2019-04-29T09:32:33.909Z,6.7
2019-04-29T09:37:58.337Z,6.3
2019-04-29T09:43:21.332Z,6.9
2019-04-29T09:48:41.462Z,7.1
2019-04-29T09:54:04.082Z,6.6
2019-04-29T09:59:26.745Z,7
2019-04-29T10:04:56.166Z,6.1
2019-04-29T10:10:13.041Z,6.4
2019-04-29T10:15:35.696Z,5.6
2019-04-29T10:20:58.332Z,6.1
2019-04-29T10:26:21.050Z,5.7
2019-04-29T10:31:43.718Z,6.3
2019-04-29T10:37:06.862Z,6.1
2019-04-29T10:42:29.504Z,5.1
2019-04-29T10:47:52.162Z,5.8
2019-04-29T10:53:17.167Z,6.5
2019-04-29T10:58:38.991Z,6.2
2019-04-29T11:04:02.714Z,6.8
2019-04-29T11:09:25.235Z,7
2019-04-29T11:14:47.871Z,6.8
2019-04-29T11:20:11.057Z,5.7
2019-04-29T11:25:34.175Z,6.8
2019-04-29T11:30:56.802Z,7.5
2019-04-29T11:36:20.396Z,7.2
2019-04-29T11:41:43.038Z,7.3
2019-04-29T11:47:05.707Z,7.5
2019-04-29T11:52:29.277Z,7.9
2019-04-29T11:57:51.949Z,7.4
2019-04-29T12:03:18.856Z,7.4
2019-04-29T12:08:38.240Z,7.2
2019-04-29T12:14:02.977Z,7.1
2019-04-29T12:19:24.570Z,7.4
2019-04-29T12:24:47.214Z,7.9
2019-04-29T12:30:09.864Z,7.7
2019-04-29T12:35:33.125Z,7.8
2019-04-29T12:40:55.824Z,8
2019-04-29T12:46:19.262Z,8.6
2019-04-29T12:51:41.901Z,9.4
2019-04-29T12:57:04.541Z,9.3
2019-04-29T13:02:27.233Z,9.6
2019-04-29T13:07:49.749Z,10.1
2019-04-29T13:13:15.586Z,10.3
2019-04-29T13:18:35.107Z,10.1
2019-04-29T13:24:12.437Z,10.1
2019-04-29T13:29:27.085Z,9.9
2019-04-29T13:34:45.168Z,10.4
2019-04-29T13:40:07.898Z,11.1
2019-04-29T13:45:30.537Z,12
2019-04-29T13:50:53.199Z,12.4
2019-04-29T13:56:32.526Z,12.7
2019-04-29T14:01:58.063Z,12.7
2019-04-29T14:07:05.767Z,14.1
2019-04-29T14:17:52.200Z,15.1
2019-04-29T14:23:15.540Z,15.9
2019-04-29T14:28:38.860Z,17.299999
2019-04-29T14:34:01.509Z,18.1
2019-04-29T14:39:36.481Z,18.1
2019-04-29T14:44:48.029Z,18.200001
2019-04-29T14:50:15.189Z,16.6
2019-04-29T14:55:35.180Z,17.200001
2019-04-29T15:00:58.235Z,17.799999
2019-04-29T15:06:20.562Z,16.200001
2019-04-29T15:11:45.313Z,16.9
2019-04-29T15:17:07.721Z,16.700001
2019-04-29T15:22:30.453Z,16.1
2019-04-29T15:27:53.155Z,14.6
2019-04-29T15:33:16.788Z,14.8
2019-04-29T15:38:39.488Z,15
2019-04-29T15:44:07.365Z,15.1
2019-04-29T15:49:26.551Z,16.700001
2019-04-29T15:54:50.861Z,17.6
2019-04-29T16:00:21.053Z,19.9
2019-04-29T16:05:54.033Z,22
2019-04-29T16:11:01.392Z,22.299999
2019-04-29T16:16:24.014Z,23
2019-04-29T16:21:46.694Z,24.799999
2019-04-29T16:27:10.492Z,26.200001
2019-04-29T16:32:33.080Z,27.299999
2019-04-29T16:37:56.829Z,26.799999
2019-04-29T16:43:19.579Z,27.5
2019-04-29T16:48:42.354Z,27.5
2019-04-29T16:54:05.054Z,27.4
2019-04-29T16:59:31.413Z,26.299999
2019-04-29T17:04:53.949Z,24.5
2019-04-29T17:10:17.134Z,19
2019-04-29T17:15:44.418Z,16.4
2019-04-29T17:21:07.215Z,13.6
2019-04-29T17:26:28.244Z,13
2019-04-29T17:31:57.007Z,12.1
2019-04-29T17:37:14.809Z,12.4
2019-04-29T17:42:37.554Z,11.4
2019-04-29T17:48:00.329Z,12.5
2019-04-29T17:53:24.810Z,13.9
2019-04-29T17:58:51.229Z,14.4
2019-04-29T18:04:11.703Z,14.2
2019-04-29T18:09:33.992Z,14.2
2019-04-29T18:14:57.254Z,14.1
2019-04-29T18:20:30.639Z,15.1
2019-04-29T18:25:44.807Z,14.5
2019-04-29T18:31:07.008Z,14.4
2019-04-29T18:36:29.670Z,14.7
2019-04-29T18:41:54.378Z,15.1
2019-04-29T18:47:22.169Z,15
2019-04-29T18:52:40.373Z,13.8
2019-04-29T18:58:03.022Z,13.8
2019-04-29T19:03:29.658Z,13.1
2019-04-29T19:08:49.347Z,13.5
2019-04-29T19:14:12.063Z,13.9
2019-04-29T19:19:37.860Z,14.3
2019-04-29T19:24:58.756Z,14.9
2019-04-29T19:30:26.250Z,15.7
2019-04-29T19:35:45.274Z,16.6
2019-04-29T19:41:11.469Z,17.299999
2019-04-29T19:46:38.185Z,17.700001
2019-04-29T19:51:56.736Z,17.9
2019-04-29T19:57:19.384Z,18.200001
2019-04-29T20:02:46.343Z,18.799999
2019-04-29T20:08:07.066Z,20
2019-04-29T20:13:31.253Z,19.9
2019-04-29T20:18:59.299Z,21
2019-04-29T20:24:17.941Z,21.299999
2019-04-29T20:29:40.792Z,22.700001
2019-04-29T20:35:07.202Z,22.299999
2019-04-29T20:40:27.111Z,23.5
2019-04-29T20:45:50.044Z,24.9
2019-04-29T20:51:13.974Z,24.9
2019-04-29T20:56:36.720Z,25.5
2019-04-29T21:02:11.020Z,25
2019-04-29T21:07:25.368Z,27.299999
2019-04-29T21:12:47.073Z,26.9
2019-04-29T21:18:10.232Z,26.5
2019-04-29T21:23:35.378Z,26.5
2019-04-29T21:28:57.264Z,26.6
2019-04-29T21:34:19.907Z,26
2019-04-29T21:39:42.584Z,26.5
2019-04-29T21:45:08.582Z,25.9
2019-04-29T21:50:33.834Z,27.299999
2019-04-29T21:55:52.613Z,27.1
2019-04-29T22:01:16.132Z,28.6
2019-04-29T22:06:38.794Z,28.5
2019-04-29T22:12:01.478Z,29.6
2019-04-29T22:17:26.137Z,29.5
2019-04-29T22:22:47.932Z,30.200001
2019-04-29T22:28:10.652Z,31
2019-04-29T22:33:34.753Z,30.799999
2019-04-29T22:38:58.382Z,30.700001
2019-04-29T22:44:22.924Z,30
2019-04-29T22:49:45.106Z,27.5
2019-04-29T22:55:07.729Z,27.299999
2019-04-29T23:00:32.611Z,27.6
2019-04-29T23:05:55.710Z,25.9
2019-04-29T23:11:17.615Z,24.299999
2019-04-29T23:16:40.273Z,25.5
2019-04-29T23:22:02.893Z,24.200001
2019-04-29T23:27:25.922Z,23.299999
2019-04-29T23:32:48.147Z,24.4
2019-04-29T23:38:10.811Z,23.799999
2019-04-29T23:43:35.424Z,24
2019-04-29T23:49:03.084Z,23.299999
2019-04-29T23:54:20.754Z,23.700001
2019-04-29T23:59:47.216Z,23.9
